sensor_id;sensor_type;location;lat;lon;timestamp;temperature;humidity
4505;DHT22;2265;48.794;9.520;2023-06-10T00:00:30;18.00;98.00
4505;DHT22;2265;48.794;9.520;2023-06-10T00:02:58;18.00;98.00
4505;DHT22;2265;48.794;9.520;2023-06-10T00:05:26;18.10;98.00
4505;DHT22;2265;48.794;9.520;2023-06-10T00:07:55;18.10;98.00
4505;DHT22;2265;48.794;9.520;2023-06-10T00:10:22;17.90;98.00
4505;DHT22;2265;48.794;9.520;2023-06-10T00:12:50;17.90;98.00
4505;DHT22;2265;48.794;9.520;2023-06-10T00:15:19;17.80;98.00
4505;DHT22;2265;48.794;9.520;2023-06-10T00:17:46;17.60;98.00
4505;DHT22;2265;48.794;9.520;2023-06-10T00:20:14;17.50;98.00
4505;DHT22;2265;48.794;9.520;2023-06-10T00:22:44;17.50;98.00
4505;DHT22;2265;48.794;9.520;2023-06-10T00:25:12;17.60;98.00
4505;DHT22;2265;48.794;9.520;2023-06-10T00:27:39;17.70;98.00
4505;DHT22;2265;48.794;9.520;2023-06-10T00:30:07;17.60;98.00
4505;DHT22;2265;48.794;9.520;2023-06-10T00:32:36;17.40;98.00
4505;DHT22;2265;48.794;9.520;2023-06-10T00:35:04;17.50;98.00
4505;DHT22;2265;48.794;9.520;2023-06-10T00:37:31;17.50;98.00
4505;DHT22;2265;48.794;9.520;2023-06-10T00:40:01;17.50;98.00
4505;DHT22;2265;48.794;9.520;2023-06-10T00:42:36;17.50;98.00
4505;DHT22;2265;48.794;9.520;2023-06-10T00:45:04;17.60;98.00
4505;DHT22;2265;48.794;9.520;2023-06-10T00:47:31;17.50;98.00
4505;DHT22;2265;48.794;9.520;2023-06-10T00:50:03;17.40;98.00
4505;DHT22;2265;48.794;9.520;2023-06-10T00:52:31;17.50;98.00
4505;DHT22;2265;48.794;9.520;2023-06-10T00:54:59;17.30;98.00
4505;DHT22;2265;48.794;9.520;2023-06-10T00:57:27;17.10;98.00
4505;DHT22;2265;48.794;9.520;2023-06-10T00:59:55;17.10;98.00
4505;DHT22;2265;48.794;9.520;2023-06-10T01:02:22;17.10;98.00
4505;DHT22;2265;48.794;9.520;2023-06-10T01:04:49;17.00;98.00
4505;DHT22;2265;48.794;9.520;2023-06-10T01:07:23;16.90;98.00
4505;DHT22;2265;48.794;9.520;2023-06-10T01:09:55;17.10;98.00
4505;DHT22;2265;48.794;9.520;2023-06-10T01:12:31;17.10;98.00
4505;DHT22;2265;48.794;9.520;2023-06-10T01:14:59;17.10;98.00
4505;DHT22;2265;48.794;9.520;2023-06-10T01:17:28;17.10;98.00
4505;DHT22;2265;48.794;9.520;2023-06-10T01:19:56;17.10;98.00
4505;DHT22;2265;48.794;9.520;2023-06-10T01:22:25;17.10;98.00
4505;DHT22;2265;48.794;9.520;2023-06-10T01:24:54;17.00;98.00
4505;DHT22;2265;48.794;9.520;2023-06-10T01:27:28;17.00;98.00
4505;DHT22;2265;48.794;9.520;2023-06-10T01:29:59;17.00;98.00
4505;DHT22;2265;48.794;9.520;2023-06-10T01:32:34;17.00;98.00
4505;DHT22;2265;48.794;9.520;2023-06-10T01:35:05;16.90;98.00
4505;DHT22;2265;48.794;9.520;2023-06-10T01:37:36;16.90;98.00
4505;DHT22;2265;48.794;9.520;2023-06-10T01:40:06;16.90;98.00
4505;DHT22;2265;48.794;9.520;2023-06-10T01:42:34;16.70;98.00
4505;DHT22;2265;48.794;9.520;2023-06-10T01:45:01;16.80;98.00
4505;DHT22;2265;48.794;9.520;2023-06-10T01:47:28;16.70;98.00
4505;DHT22;2265;48.794;9.520;2023-06-10T01:49:58;16.70;98.00
4505;DHT22;2265;48.794;9.520;2023-06-10T01:52:25;16.70;98.00
4505;DHT22;2265;48.794;9.520;2023-06-10T01:54:54;16.70;98.00
4505;DHT22;2265;48.794;9.520;2023-06-10T01:57:21;16.70;98.00
4505;DHT22;2265;48.794;9.520;2023-06-10T01:59:48;16.70;98.00
4505;DHT22;2265;48.794;9.520;2023-06-10T02:02:15;16.60;98.00
4505;DHT22;2265;48.794;9.520;2023-06-10T02:04:43;16.60;98.00
4505;DHT22;2265;48.794;9.520;2023-06-10T02:07:10;16.50;98.00
4505;DHT22;2265;48.794;9.520;2023-06-10T02:09:39;16.60;98.00
4505;DHT22;2265;48.794;9.520;2023-06-10T02:12:08;16.70;98.00
4505;DHT22;2265;48.794;9.520;2023-06-10T02:14:36;16.60;98.00
4505;DHT22;2265;48.794;9.520;2023-06-10T02:17:03;16.60;98.00
4505;DHT22;2265;48.794;9.520;2023-06-10T02:19:30;16.60;98.00
4505;DHT22;2265;48.794;9.520;2023-06-10T02:21:57;16.60;98.00
4505;DHT22;2265;48.794;9.520;2023-06-10T02:24:24;16.50;98.00
4505;DHT22;2265;48.794;9.520;2023-06-10T02:26:51;16.40;98.00
4505;DHT22;2265;48.794;9.520;2023-06-10T02:29:20;16.40;98.00
4505;DHT22;2265;48.794;9.520;2023-06-10T02:31:50;16.50;98.00
4505;DHT22;2265;48.794;9.520;2023-06-10T02:34:18;16.40;98.00
4505;DHT22;2265;48.794;9.520;2023-06-10T02:36:45;16.30;98.00
4505;DHT22;2265;48.794;9.520;2023-06-10T02:39:14;16.30;98.00
4505;DHT22;2265;48.794;9.520;2023-06-10T02:41:41;16.30;98.00
4505;DHT22;2265;48.794;9.520;2023-06-10T02:44:09;16.20;98.00
4505;DHT22;2265;48.794;9.520;2023-06-10T02:46:37;16.10;98.00
4505;DHT22;2265;48.794;9.520;2023-06-10T02:49:05;16.00;98.00
4505;DHT22;2265;48.794;9.520;2023-06-10T02:51:32;16.10;98.00
4505;DHT22;2265;48.794;9.520;2023-06-10T02:53:59;16.00;98.00
4505;DHT22;2265;48.794;9.520;2023-06-10T02:56:26;15.90;98.00
4505;DHT22;2265;48.794;9.520;2023-06-10T02:58:53;15.90;98.00
4505;DHT22;2265;48.794;9.520;2023-06-10T03:01:21;15.90;98.00
4505;DHT22;2265;48.794;9.520;2023-06-10T03:03:49;15.70;98.00
4505;DHT22;2265;48.794;9.520;2023-06-10T03:06:16;15.80;98.00
4505;DHT22;2265;48.794;9.520;2023-06-10T03:08:44;15.90;98.00
4505;DHT22;2265;48.794;9.520;2023-06-10T03:11:11;15.90;98.00
4505;DHT22;2265;48.794;9.520;2023-06-10T03:13:38;16.00;98.00
4505;DHT22;2265;48.794;9.520;2023-06-10T03:18:34;15.90;98.00
4505;DHT22;2265;48.794;9.520;2023-06-10T03:21:02;16.00;98.00
4505;DHT22;2265;48.794;9.520;2023-06-10T03:23:29;15.90;98.00
4505;DHT22;2265;48.794;9.520;2023-06-10T03:25:56;15.80;98.00
4505;DHT22;2265;48.794;9.520;2023-06-10T03:28:25;15.80;98.00
4505;DHT22;2265;48.794;9.520;2023-06-10T03:30:52;15.70;98.00
4505;DHT22;2265;48.794;9.520;2023-06-10T03:33:20;15.80;98.00
4505;DHT22;2265;48.794;9.520;2023-06-10T03:35:47;15.80;98.00
4505;DHT22;2265;48.794;9.520;2023-06-10T03:38:16;15.70;98.00
4505;DHT22;2265;48.794;9.520;2023-06-10T03:40:43;15.80;98.00
4505;DHT22;2265;48.794;9.520;2023-06-10T03:43:10;15.90;98.00
4505;DHT22;2265;48.794;9.520;2023-06-10T03:45:37;15.90;98.00
4505;DHT22;2265;48.794;9.520;2023-06-10T03:48:05;15.90;98.00
4505;DHT22;2265;48.794;9.520;2023-06-10T03:50:33;15.80;98.00
4505;DHT22;2265;48.794;9.520;2023-06-10T03:53:01;15.80;98.00
4505;DHT22;2265;48.794;9.520;2023-06-10T03:55:29;15.90;98.00
4505;DHT22;2265;48.794;9.520;2023-06-10T03:57:56;15.80;98.00
4505;DHT22;2265;48.794;9.520;2023-06-10T04:00:23;15.80;98.00
4505;DHT22;2265;48.794;9.520;2023-06-10T04:02:51;15.80;98.00
4505;DHT22;2265;48.794;9.520;2023-06-10T04:05:19;15.80;98.00
4505;DHT22;2265;48.794;9.520;2023-06-10T04:07:48;15.80;98.00
4505;DHT22;2265;48.794;9.520;2023-06-10T04:10:15;15.90;98.00
4505;DHT22;2265;48.794;9.520;2023-06-10T04:12:44;15.90;98.00
4505;DHT22;2265;48.794;9.520;2023-06-10T04:15:12;15.80;98.00
4505;DHT22;2265;48.794;9.520;2023-06-10T04:17:39;15.90;98.00
4505;DHT22;2265;48.794;9.520;2023-06-10T04:20:07;15.90;98.00
4505;DHT22;2265;48.794;9.520;2023-06-10T04:22:37;16.00;98.00
4505;DHT22;2265;48.794;9.520;2023-06-10T04:25:04;16.00;98.00
4505;DHT22;2265;48.794;9.520;2023-06-10T04:27:33;16.10;98.00
4505;DHT22;2265;48.794;9.520;2023-06-10T04:30:02;15.90;98.00
4505;DHT22;2265;48.794;9.520;2023-06-10T04:32:29;16.10;98.00
4505;DHT22;2265;48.794;9.520;2023-06-10T04:34:56;16.10;98.00
4505;DHT22;2265;48.794;9.520;2023-06-10T04:37:23;16.20;98.00
4505;DHT22;2265;48.794;9.520;2023-06-10T04:39:52;16.30;98.00
4505;DHT22;2265;48.794;9.520;2023-06-10T04:42:19;16.50;98.00
4505;DHT22;2265;48.794;9.520;2023-06-10T04:44:46;16.60;98.00
4505;DHT22;2265;48.794;9.520;2023-06-10T04:47:17;16.60;98.00
4505;DHT22;2265;48.794;9.520;2023-06-10T04:49:44;16.70;98.00
4505;DHT22;2265;48.794;9.520;2023-06-10T04:52:11;16.70;98.00
4505;DHT22;2265;48.794;9.520;2023-06-10T04:54:39;16.70;98.00
4505;DHT22;2265;48.794;9.520;2023-06-10T04:57:10;16.60;98.00
4505;DHT22;2265;48.794;9.520;2023-06-10T04:59:37;16.70;98.00
4505;DHT22;2265;48.794;9.520;2023-06-10T05:02:04;16.70;98.00
4505;DHT22;2265;48.794;9.520;2023-06-10T05:04:33;16.80;98.00
4505;DHT22;2265;48.794;9.520;2023-06-10T05:07:00;16.80;98.00
4505;DHT22;2265;48.794;9.520;2023-06-10T05:09:27;16.90;98.00
4505;DHT22;2265;48.794;9.520;2023-06-10T05:11:54;17.00;98.00
4505;DHT22;2265;48.794;9.520;2023-06-10T05:14:21;17.00;98.00
4505;DHT22;2265;48.794;9.520;2023-06-10T05:16:48;17.10;98.00
4505;DHT22;2265;48.794;9.520;2023-06-10T05:19:16;17.20;98.00
4505;DHT22;2265;48.794;9.520;2023-06-10T05:21:45;17.30;98.00
4505;DHT22;2265;48.794;9.520;2023-06-10T05:24:12;17.40;98.00
4505;DHT22;2265;48.794;9.520;2023-06-10T05:26:39;17.50;98.00
4505;DHT22;2265;48.794;9.520;2023-06-10T05:29:07;17.70;98.00
4505;DHT22;2265;48.794;9.520;2023-06-10T05:31:34;17.80;98.00
4505;DHT22;2265;48.794;9.520;2023-06-10T05:34:01;17.80;98.00
4505;DHT22;2265;48.794;9.520;2023-06-10T05:36:28;17.90;98.00
4505;DHT22;2265;48.794;9.520;2023-06-10T05:38:57;18.10;98.00
4505;DHT22;2265;48.794;9.520;2023-06-10T05:41:24;18.20;98.00
4505;DHT22;2265;48.794;9.520;2023-06-10T05:43:51;18.30;98.00
4505;DHT22;2265;48.794;9.520;2023-06-10T05:46:18;18.50;98.00
4505;DHT22;2265;48.794;9.520;2023-06-10T05:48:46;18.60;98.00
4505;DHT22;2265;48.794;9.520;2023-06-10T05:51:13;18.70;98.00
4505;DHT22;2265;48.794;9.520;2023-06-10T05:53:40;18.90;98.00
4505;DHT22;2265;48.794;9.520;2023-06-10T05:56:09;19.00;98.00
4505;DHT22;2265;48.794;9.520;2023-06-10T05:58:36;19.10;98.00
4505;DHT22;2265;48.794;9.520;2023-06-10T06:01:04;19.00;98.00
4505;DHT22;2265;48.794;9.520;2023-06-10T06:03:31;19.20;98.00
4505;DHT22;2265;48.794;9.520;2023-06-10T06:05:59;19.20;98.00
4505;DHT22;2265;48.794;9.520;2023-06-10T06:08:26;19.40;98.00
4505;DHT22;2265;48.794;9.520;2023-06-10T06:10:53;19.50;98.00
4505;DHT22;2265;48.794;9.520;2023-06-10T06:13:22;19.50;98.00
4505;DHT22;2265;48.794;9.520;2023-06-10T06:15:49;19.70;98.00
4505;DHT22;2265;48.794;9.520;2023-06-10T06:18:16;19.80;98.00
4505;DHT22;2265;48.794;9.520;2023-06-10T06:20:44;19.80;98.00
4505;DHT22;2265;48.794;9.520;2023-06-10T06:23:11;19.90;98.00
4505;DHT22;2265;48.794;9.520;2023-06-10T06:25:39;20.00;98.00
4505;DHT22;2265;48.794;9.520;2023-06-10T06:28:06;20.10;98.00
4505;DHT22;2265;48.794;9.520;2023-06-10T06:30:36;20.30;98.00
4505;DHT22;2265;48.794;9.520;2023-06-10T06:33:03;20.40;98.00
4505;DHT22;2265;48.794;9.520;2023-06-10T06:35:31;20.60;98.00
4505;DHT22;2265;48.794;9.520;2023-06-10T06:38:01;20.60;98.00
4505;DHT22;2265;48.794;9.520;2023-06-10T06:40:29;20.70;98.00
4505;DHT22;2265;48.794;9.520;2023-06-10T06:42:58;20.70;98.00
4505;DHT22;2265;48.794;9.520;2023-06-10T06:45:26;20.70;98.00
4505;DHT22;2265;48.794;9.520;2023-06-10T06:47:54;20.80;98.00
4505;DHT22;2265;48.794;9.520;2023-06-10T06:50:22;20.90;98.00
4505;DHT22;2265;48.794;9.520;2023-06-10T06:52:49;21.10;98.00
4505;DHT22;2265;48.794;9.520;2023-06-10T06:55:16;21.30;98.00
4505;DHT22;2265;48.794;9.520;2023-06-10T06:57:43;21.50;98.00
4505;DHT22;2265;48.794;9.520;2023-06-10T07:00:11;21.60;98.00
4505;DHT22;2265;48.794;9.520;2023-06-10T07:02:38;21.70;98.00
4505;DHT22;2265;48.794;9.520;2023-06-10T07:05:09;21.70;98.00
4505;DHT22;2265;48.794;9.520;2023-06-10T07:07:36;21.70;98.00
4505;DHT22;2265;48.794;9.520;2023-06-10T07:10:03;21.80;98.00
4505;DHT22;2265;48.794;9.520;2023-06-10T07:12:31;21.80;98.00
4505;DHT22;2265;48.794;9.520;2023-06-10T07:14:58;21.80;98.00
4505;DHT22;2265;48.794;9.520;2023-06-10T07:17:25;21.90;98.00
4505;DHT22;2265;48.794;9.520;2023-06-10T07:19:52;21.90;98.00
4505;DHT22;2265;48.794;9.520;2023-06-10T07:22:24;22.10;98.00
4505;DHT22;2265;48.794;9.520;2023-06-10T07:24:52;22.30;98.00
4505;DHT22;2265;48.794;9.520;2023-06-10T07:27:20;22.50;98.00
4505;DHT22;2265;48.794;9.520;2023-06-10T07:29:47;22.50;98.00
4505;DHT22;2265;48.794;9.520;2023-06-10T07:32:14;22.50;98.00
4505;DHT22;2265;48.794;9.520;2023-06-10T07:34:43;22.60;98.00
4505;DHT22;2265;48.794;9.520;2023-06-10T07:37:10;22.70;98.00
4505;DHT22;2265;48.794;9.520;2023-06-10T07:39:38;22.90;98.00
4505;DHT22;2265;48.794;9.520;2023-06-10T07:42:09;23.00;98.00
4505;DHT22;2265;48.794;9.520;2023-06-10T07:44:39;23.10;98.00
4505;DHT22;2265;48.794;9.520;2023-06-10T07:47:07;23.20;98.00
4505;DHT22;2265;48.794;9.520;2023-06-10T07:52:08;23.40;98.00
4505;DHT22;2265;48.794;9.520;2023-06-10T07:54:35;23.50;98.00
4505;DHT22;2265;48.794;9.520;2023-06-10T07:57:04;23.50;98.00
4505;DHT22;2265;48.794;9.520;2023-06-10T07:59:32;23.60;98.00
4505;DHT22;2265;48.794;9.520;2023-06-10T08:01:59;23.70;98.00
4505;DHT22;2265;48.794;9.520;2023-06-10T08:04:26;23.80;98.00
4505;DHT22;2265;48.794;9.520;2023-06-10T08:06:53;24.00;98.00
4505;DHT22;2265;48.794;9.520;2023-06-10T08:09:20;24.00;98.00
4505;DHT22;2265;48.794;9.520;2023-06-10T08:11:49;24.20;98.00
4505;DHT22;2265;48.794;9.520;2023-06-10T08:14:17;24.20;97.70
4505;DHT22;2265;48.794;9.520;2023-06-10T08:16:45;24.30;97.60
4505;DHT22;2265;48.794;9.520;2023-06-10T08:19:12;24.40;97.00
4505;DHT22;2265;48.794;9.520;2023-06-10T08:21:39;24.50;96.90
4505;DHT22;2265;48.794;9.520;2023-06-10T08:24:06;24.60;97.10
4505;DHT22;2265;48.794;9.520;2023-06-10T08:26:33;24.70;97.40
4505;DHT22;2265;48.794;9.520;2023-06-10T08:29:01;24.80;96.00
4505;DHT22;2265;48.794;9.520;2023-06-10T08:31:29;24.90;95.30
4505;DHT22;2265;48.794;9.520;2023-06-10T08:33:57;25.00;95.60
4505;DHT22;2265;48.794;9.520;2023-06-10T08:36:27;25.10;95.00
4505;DHT22;2265;48.794;9.520;2023-06-10T08:38:54;25.30;94.90
4505;DHT22;2265;48.794;9.520;2023-06-10T08:41:24;25.40;94.80
4505;DHT22;2265;48.794;9.520;2023-06-10T08:43:57;25.40;94.20
4505;DHT22;2265;48.794;9.520;2023-06-10T08:46:26;25.60;94.40
4505;DHT22;2265;48.794;9.520;2023-06-10T08:48:55;25.70;94.30
4505;DHT22;2265;48.794;9.520;2023-06-10T08:51:23;25.90;94.50
4505;DHT22;2265;48.794;9.520;2023-06-10T08:53:56;25.90;92.60
4505;DHT22;2265;48.794;9.520;2023-06-10T08:56:26;26.00;94.20
4505;DHT22;2265;48.794;9.520;2023-06-10T08:58:55;26.10;92.90
4505;DHT22;2265;48.794;9.520;2023-06-10T09:01:23;26.20;93.10
4505;DHT22;2265;48.794;9.520;2023-06-10T09:03:51;26.40;92.00
4505;DHT22;2265;48.794;9.520;2023-06-10T09:06:20;26.40;92.20
4505;DHT22;2265;48.794;9.520;2023-06-10T09:08:48;26.40;91.90
4505;DHT22;2265;48.794;9.520;2023-06-10T09:11:15;26.30;91.40
4505;DHT22;2265;48.794;9.520;2023-06-10T09:13:42;26.20;92.30
4505;DHT22;2265;48.794;9.520;2023-06-10T09:16:10;26.30;92.20
4505;DHT22;2265;48.794;9.520;2023-06-10T09:18:38;26.40;91.40
4505;DHT22;2265;48.794;9.520;2023-06-10T09:21:06;26.60;90.90
4505;DHT22;2265;48.794;9.520;2023-06-10T09:23:36;26.50;90.80
4505;DHT22;2265;48.794;9.520;2023-06-10T09:26:08;26.50;90.30
4505;DHT22;2265;48.794;9.520;2023-06-10T09:28:35;26.60;91.00
4505;DHT22;2265;48.794;9.520;2023-06-10T09:31:05;26.70;90.80
4505;DHT22;2265;48.794;9.520;2023-06-10T09:33:33;26.80;89.60
4505;DHT22;2265;48.794;9.520;2023-06-10T09:36:03;27.00;88.50
4505;DHT22;2265;48.794;9.520;2023-06-10T09:38:31;27.20;88.20
4505;DHT22;2265;48.794;9.520;2023-06-10T09:41:00;27.40;88.60
4505;DHT22;2265;48.794;9.520;2023-06-10T09:43:39;27.70;87.80
4505;DHT22;2265;48.794;9.520;2023-06-10T09:46:13;27.90;86.40
4505;DHT22;2265;48.794;9.520;2023-06-10T09:48:41;28.10;86.70
4505;DHT22;2265;48.794;9.520;2023-06-10T09:51:09;28.00;85.70
4505;DHT22;2265;48.794;9.520;2023-06-10T09:53:37;28.10;86.10
4505;DHT22;2265;48.794;9.520;2023-06-10T09:56:07;28.10;85.70
4505;DHT22;2265;48.794;9.520;2023-06-10T09:58:36;28.10;85.80
4505;DHT22;2265;48.794;9.520;2023-06-10T10:01:10;28.00;84.80
4505;DHT22;2265;48.794;9.520;2023-06-10T10:03:44;28.00;86.10
4505;DHT22;2265;48.794;9.520;2023-06-10T10:06:13;28.20;85.30
4505;DHT22;2265;48.794;9.520;2023-06-10T10:08:40;28.50;84.90
4505;DHT22;2265;48.794;9.520;2023-06-10T10:11:08;28.70;84.20
4505;DHT22;2265;48.794;9.520;2023-06-10T10:13:35;28.70;82.80
4505;DHT22;2265;48.794;9.520;2023-06-10T10:16:06;28.90;82.90
4505;DHT22;2265;48.794;9.520;2023-06-10T10:18:39;28.80;81.90
4505;DHT22;2265;48.794;9.520;2023-06-10T10:21:12;28.90;83.60
4505;DHT22;2265;48.794;9.520;2023-06-10T10:23:44;29.10;81.80
4505;DHT22;2265;48.794;9.520;2023-06-10T10:26:17;28.90;82.50
4505;DHT22;2265;48.794;9.520;2023-06-10T10:28:48;28.70;81.90
4505;DHT22;2265;48.794;9.520;2023-06-10T10:31:19;28.40;82.30
4505;DHT22;2265;48.794;9.520;2023-06-10T10:33:54;28.30;83.80
4505;DHT22;2265;48.794;9.520;2023-06-10T10:36:22;28.40;83.20
4505;DHT22;2265;48.794;9.520;2023-06-10T10:38:51;28.30;83.20
4505;DHT22;2265;48.794;9.520;2023-06-10T10:41:20;28.20;83.20
4505;DHT22;2265;48.794;9.520;2023-06-10T10:43:48;28.50;83.90
4505;DHT22;2265;48.794;9.520;2023-06-10T10:46:17;28.80;83.50
4505;DHT22;2265;48.794;9.520;2023-06-10T10:48:47;29.20;83.10
4505;DHT22;2265;48.794;9.520;2023-06-10T10:51:18;29.60;81.80
4505;DHT22;2265;48.794;9.520;2023-06-10T10:54:11;29.90;81.00
4505;DHT22;2265;48.794;9.520;2023-06-10T10:57:13;30.10;80.60
4505;DHT22;2265;48.794;9.520;2023-06-10T10:59:45;30.20;80.60
4505;DHT22;2265;48.794;9.520;2023-06-10T11:02:16;30.40;79.70
4505;DHT22;2265;48.794;9.520;2023-06-10T11:04:48;30.50;79.90
4505;DHT22;2265;48.794;9.520;2023-06-10T11:07:15;30.40;79.30
4505;DHT22;2265;48.794;9.520;2023-06-10T11:09:59;30.40;79.00
4505;DHT22;2265;48.794;9.520;2023-06-10T11:12:47;30.70;77.40
4505;DHT22;2265;48.794;9.520;2023-06-10T11:15:18;30.90;76.70
4505;DHT22;2265;48.794;9.520;2023-06-10T11:18:08;31.00;76.90
4505;DHT22;2265;48.794;9.520;2023-06-10T11:20:58;31.20;77.80
4505;DHT22;2265;48.794;9.520;2023-06-10T11:23:33;31.20;77.30
4505;DHT22;2265;48.794;9.520;2023-06-10T11:26:10;30.90;77.70
4505;DHT22;2265;48.794;9.520;2023-06-10T11:28:39;30.70;77.70
4505;DHT22;2265;48.794;9.520;2023-06-10T11:31:06;30.70;78.00
4505;DHT22;2265;48.794;9.520;2023-06-10T11:33:34;30.60;78.20
4505;DHT22;2265;48.794;9.520;2023-06-10T11:36:07;30.20;78.30
4505;DHT22;2265;48.794;9.520;2023-06-10T11:38:34;29.80;79.10
4505;DHT22;2265;48.794;9.520;2023-06-10T11:41:02;29.60;80.00
4505;DHT22;2265;48.794;9.520;2023-06-10T11:43:30;29.60;80.30
4505;DHT22;2265;48.794;9.520;2023-06-10T11:45:58;29.40;80.70
4505;DHT22;2265;48.794;9.520;2023-06-10T11:48:26;29.40;80.80
4505;DHT22;2265;48.794;9.520;2023-06-10T11:50:56;29.70;80.40
4505;DHT22;2265;48.794;9.520;2023-06-10T11:53:23;30.10;79.50
4505;DHT22;2265;48.794;9.520;2023-06-10T11:55:51;30.70;79.80
4505;DHT22;2265;48.794;9.520;2023-06-10T11:58:19;31.30;77.90
4505;DHT22;2265;48.794;9.520;2023-06-10T12:00:48;31.90;76.00
4505;DHT22;2265;48.794;9.520;2023-06-10T12:03:18;31.90;74.60
4505;DHT22;2265;48.794;9.520;2023-06-10T12:05:56;31.50;74.30
4505;DHT22;2265;48.794;9.520;2023-06-10T12:08:23;31.10;75.30
4505;DHT22;2265;48.794;9.520;2023-06-10T12:10:51;30.80;75.10
4505;DHT22;2265;48.794;9.520;2023-06-10T12:13:18;30.70;75.10
4505;DHT22;2265;48.794;9.520;2023-06-10T12:15:45;31.20;76.40
4505;DHT22;2265;48.794;9.520;2023-06-10T12:18:17;31.90;75.50
4505;DHT22;2265;48.794;9.520;2023-06-10T12:20:46;32.50;74.40
4505;DHT22;2265;48.794;9.520;2023-06-10T12:23:15;32.80;72.10
4505;DHT22;2265;48.794;9.520;2023-06-10T12:25:50;32.70;72.40
4505;DHT22;2265;48.794;9.520;2023-06-10T12:28:21;32.30;72.90
4505;DHT22;2265;48.794;9.520;2023-06-10T12:30:49;32.40;73.20
4505;DHT22;2265;48.794;9.520;2023-06-10T12:33:18;32.60;74.40
4505;DHT22;2265;48.794;9.520;2023-06-10T12:38:13;33.20;71.00
4505;DHT22;2265;48.794;9.520;2023-06-10T12:40:40;33.40;70.50
4505;DHT22;2265;48.794;9.520;2023-06-10T12:43:07;33.80;70.50
4505;DHT22;2265;48.794;9.520;2023-06-10T12:45:42;33.90;70.50
4505;DHT22;2265;48.794;9.520;2023-06-10T12:48:17;33.30;70.70
4505;DHT22;2265;48.794;9.520;2023-06-10T12:50:51;33.40;71.50
4505;DHT22;2265;48.794;9.520;2023-06-10T12:53:19;33.60;70.20
4505;DHT22;2265;48.794;9.520;2023-06-10T12:55:46;33.50;70.60
4505;DHT22;2265;48.794;9.520;2023-06-10T12:58:14;32.80;71.70
4505;DHT22;2265;48.794;9.520;2023-06-10T13:00:41;32.20;72.70
4505;DHT22;2265;48.794;9.520;2023-06-10T13:03:09;32.10;73.80
4505;DHT22;2265;48.794;9.520;2023-06-10T13:05:37;32.40;72.70
4505;DHT22;2265;48.794;9.520;2023-06-10T13:08:06;32.50;71.50
4505;DHT22;2265;48.794;9.520;2023-06-10T13:10:36;32.10;72.10
4505;DHT22;2265;48.794;9.520;2023-06-10T13:13:03;32.30;73.30
4505;DHT22;2265;48.794;9.520;2023-06-10T13:15:31;32.20;72.50
4505;DHT22;2265;48.794;9.520;2023-06-10T13:18:01;31.90;72.60
4505;DHT22;2265;48.794;9.520;2023-06-10T13:20:30;31.50;73.50
4505;DHT22;2265;48.794;9.520;2023-06-10T13:22:57;31.10;73.60
4505;DHT22;2265;48.794;9.520;2023-06-10T13:25:26;30.90;75.00
4505;DHT22;2265;48.794;9.520;2023-06-10T13:27:53;30.90;75.40
4505;DHT22;2265;48.794;9.520;2023-06-10T13:30:21;31.60;75.40
4505;DHT22;2265;48.794;9.520;2023-06-10T13:32:47;32.30;73.80
4505;DHT22;2265;48.794;9.520;2023-06-10T13:35:14;32.40;72.90
4505;DHT22;2265;48.794;9.520;2023-06-10T13:37:42;32.10;72.40
4505;DHT22;2265;48.794;9.520;2023-06-10T13:40:10;31.60;73.70
4505;DHT22;2265;48.794;9.520;2023-06-10T13:42:38;31.30;74.60
4505;DHT22;2265;48.794;9.520;2023-06-10T13:45:07;31.10;74.90
4505;DHT22;2265;48.794;9.520;2023-06-10T13:47:35;31.20;75.70
4505;DHT22;2265;48.794;9.520;2023-06-10T13:50:02;31.40;75.50
4505;DHT22;2265;48.794;9.520;2023-06-10T13:52:29;32.00;73.40
4505;DHT22;2265;48.794;9.520;2023-06-10T13:54:56;32.40;72.80
4505;DHT22;2265;48.794;9.520;2023-06-10T13:57:23;33.00;71.90
4505;DHT22;2265;48.794;9.520;2023-06-10T13:59:52;33.40;70.40
4505;DHT22;2265;48.794;9.520;2023-06-10T14:02:19;33.80;70.80
4505;DHT22;2265;48.794;9.520;2023-06-10T14:04:46;34.00;69.60
4505;DHT22;2265;48.794;9.520;2023-06-10T14:07:15;34.00;70.20
4505;DHT22;2265;48.794;9.520;2023-06-10T14:09:45;33.40;70.30
4505;DHT22;2265;48.794;9.520;2023-06-10T14:12:12;32.80;70.60
4505;DHT22;2265;48.794;9.520;2023-06-10T14:14:39;32.30;71.50
4505;DHT22;2265;48.794;9.520;2023-06-10T14:17:07;32.00;72.70
4505;DHT22;2265;48.794;9.520;2023-06-10T14:19:34;32.20;72.80
4505;DHT22;2265;48.794;9.520;2023-06-10T14:22:01;32.50;72.80
4505;DHT22;2265;48.794;9.520;2023-06-10T14:24:28;33.00;72.00
4505;DHT22;2265;48.794;9.520;2023-06-10T14:26:56;33.30;70.40
4505;DHT22;2265;48.794;9.520;2023-06-10T14:29:24;33.00;70.60
4505;DHT22;2265;48.794;9.520;2023-06-10T14:31:52;33.00;70.90
4505;DHT22;2265;48.794;9.520;2023-06-10T14:34:21;33.10;71.00
4505;DHT22;2265;48.794;9.520;2023-06-10T14:36:49;33.50;71.40
4505;DHT22;2265;48.794;9.520;2023-06-10T14:39:16;33.70;70.60
4505;DHT22;2265;48.794;9.520;2023-06-10T14:41:43;34.00;69.90
4505;DHT22;2265;48.794;9.520;2023-06-10T14:44:10;34.10;69.90
4505;DHT22;2265;48.794;9.520;2023-06-10T14:46:37;34.30;69.80
4505;DHT22;2265;48.794;9.520;2023-06-10T14:49:04;34.30;68.80
4505;DHT22;2265;48.794;9.520;2023-06-10T14:51:32;34.30;69.10
4505;DHT22;2265;48.794;9.520;2023-06-10T14:53:59;34.30;67.40
4505;DHT22;2265;48.794;9.520;2023-06-10T14:56:26;34.20;66.60
4505;DHT22;2265;48.794;9.520;2023-06-10T14:58:56;34.20;66.80
4505;DHT22;2265;48.794;9.520;2023-06-10T15:01:23;34.20;67.70
4505;DHT22;2265;48.794;9.520;2023-06-10T15:03:50;34.30;68.10
4505;DHT22;2265;48.794;9.520;2023-06-10T15:06:17;34.40;67.20
4505;DHT22;2265;48.794;9.520;2023-06-10T15:08:48;34.50;67.50
4505;DHT22;2265;48.794;9.520;2023-06-10T15:11:17;34.40;67.50
4505;DHT22;2265;48.794;9.520;2023-06-10T15:13:44;34.50;67.20
4505;DHT22;2265;48.794;9.520;2023-06-10T15:16:20;34.50;67.90
4505;DHT22;2265;48.794;9.520;2023-06-10T15:18:47;34.40;67.70
4505;DHT22;2265;48.794;9.520;2023-06-10T15:21:14;34.40;68.80
4505;DHT22;2265;48.794;9.520;2023-06-10T15:23:42;34.40;69.20
4505;DHT22;2265;48.794;9.520;2023-06-10T15:26:10;34.50;67.00
4505;DHT22;2265;48.794;9.520;2023-06-10T15:28:39;34.60;68.10
4505;DHT22;2265;48.794;9.520;2023-06-10T15:31:06;34.40;67.90
4505;DHT22;2265;48.794;9.520;2023-06-10T15:33:33;34.10;68.20
4505;DHT22;2265;48.794;9.520;2023-06-10T15:36:00;34.10;66.90
4505;DHT22;2265;48.794;9.520;2023-06-10T15:38:27;33.90;66.70
4505;DHT22;2265;48.794;9.520;2023-06-10T15:40:54;33.70;66.40
4505;DHT22;2265;48.794;9.520;2023-06-10T15:43:23;33.80;67.00
4505;DHT22;2265;48.794;9.520;2023-06-10T15:45:50;33.90;66.10
4505;DHT22;2265;48.794;9.520;2023-06-10T15:48:17;33.90;66.00
4505;DHT22;2265;48.794;9.520;2023-06-10T15:50:44;34.00;67.60
4505;DHT22;2265;48.794;9.520;2023-06-10T15:53:11;34.20;66.80
4505;DHT22;2265;48.794;9.520;2023-06-10T15:55:38;34.30;66.80
4505;DHT22;2265;48.794;9.520;2023-06-10T15:58:05;34.30;67.00
4505;DHT22;2265;48.794;9.520;2023-06-10T16:00:34;34.20;67.40
4505;DHT22;2265;48.794;9.520;2023-06-10T16:03:01;34.00;68.30
4505;DHT22;2265;48.794;9.520;2023-06-10T16:05:28;34.10;68.30
4505;DHT22;2265;48.794;9.520;2023-06-10T16:07:55;33.90;68.20
4505;DHT22;2265;48.794;9.520;2023-06-10T16:10:23;33.90;67.40
4505;DHT22;2265;48.794;9.520;2023-06-10T16:12:51;33.80;68.00
4505;DHT22;2265;48.794;9.520;2023-06-10T16:15:18;33.30;68.70
4505;DHT22;2265;48.794;9.520;2023-06-10T16:17:46;32.80;69.30